Time;durP1;ratioP1;P1;durP2;ratioP2;P2;SDS_P1;SDS_P2;PMS_P1;PMS_P2;Temp;Humidity;BMP_temperature;BMP_pressure;BME280_temperature;BME280_humidity;BME280_pressure;Samples;Min_cycle;Max_cycle;Signal;HPM_P1;HPM_P2
2023/12/04 00:02:38;;;;;;;4.78;4.60;;;;;;;;;;6143351;29;20102;-92
2023/12/04 00:05:42;;;;;;;6.45;6.05;;;;;;;;;;6141925;28;20485;-92
2023/12/04 00:08:44;;;;;;;9.82;7.82;;;;;;;;;;6133142;28;20130;-92
2023/12/04 00:11:45;;;;;;;8.00;7.32;;;;;;;;;;6135188;28;20452;-92
2023/12/04 00:14:47;;;;;;;8.38;6.97;;;;;;;;;;6139765;28;20531;-92
2023/12/04 00:17:48;;;;;;;7.10;6.68;;;;;;;;;;6142348;28;20090;-91
2023/12/04 00:20:50;;;;;;;6.95;6.50;;;;;;;;;;6138021;29;20282;-91
2023/12/04 00:23:52;;;;;;;7.80;7.32;;;;;;;;;;6142875;28;20050;-91
2023/12/04 00:26:53;;;;;;;9.10;8.48;;;;;;;;;;6139761;29;20043;-91
2023/12/04 00:29:55;;;;;;;8.23;7.60;;;;;;;;;;6142382;28;20416;-91
2023/12/04 00:32:57;;;;;;;7.90;7.45;;;;;;;;;;6140495;28;20043;-91
2023/12/04 00:36:00;;;;;;;8.10;7.57;;;;;;;;;;6139634;29;20062;-91
2023/12/04 00:39:01;;;;;;;7.00;6.65;;;;;;;;;;6140772;28;20051;-91
2023/12/04 00:42:04;;;;;;;8.38;7.97;;;;;;;;;;6140630;28;20058;-91
2023/12/04 00:45:06;;;;;;;7.95;7.28;;;;;;;;;;6154735;28;20054;-92
2023/12/04 00:48:07;;;;;;;6.60;6.30;;;;;;;;;;6141977;28;20049;-92
2023/12/04 00:51:09;;;;;;;7.13;6.75;;;;;;;;;;6141727;28;20105;-91
2023/12/04 00:54:11;;;;;;;6.90;6.60;;;;;;;;;;6140439;28;20047;-91
2023/12/04 00:57:12;;;;;;;9.27;8.75;;;;;;;;;;6139853;28;20153;-92
2023/12/04 01:00:14;;;;;;;6.97;6.57;;;;;;;;;;6136032;29;20036;-91
2023/12/04 01:03:16;;;;;;;7.25;6.82;;;;;;;;;;6149368;28;20191;-91
2023/12/04 01:06:22;;;;;;;8.82;8.23;;;;;;;;;;6140204;29;20046;-91
2023/12/04 01:09:25;;;;;;;7.75;7.20;;;;;;;;;;6155795;28;20055;-91
2023/12/04 01:12:26;;;;;;;7.35;6.85;;;;;;;;;;6153962;28;20050;-92
2023/12/04 01:15:28;;;;;;;6.35;6.05;;;;;;;;;;6138602;28;20667;-92
2023/12/04 01:18:29;;;;;;;7.20;6.80;;;;;;;;;;6140913;28;20039;-91
2023/12/04 01:21:31;;;;;;;7.03;6.63;;;;;;;;;;6134531;29;20051;-92
2023/12/04 01:24:33;;;;;;;7.63;7.03;;;;;;;;;;6137093;28;20593;-92
2023/12/04 01:27:38;;;;;;;9.98;9.02;;;;;;;;;;6136917;29;20050;-92
2023/12/04 01:30:40;;;;;;;8.95;8.35;;;;;;;;;;6127533;28;20056;-91
2023/12/04 01:33:41;;;;;;;6.97;6.57;;;;;;;;;;6133231;28;20131;-91
2023/12/04 01:36:43;;;;;;;8.85;8.20;;;;;;;;;;6138554;28;20050;-91
2023/12/04 01:39:45;;;;;;;7.22;6.88;;;;;;;;;;6128083;28;20043;-91
2023/12/04 01:42:46;;;;;;;9.95;9.02;;;;;;;;;;6139206;29;20461;-91
2023/12/04 01:45:49;;;;;;;9.13;8.27;;;;;;;;;;6139078;28;20066;-91
2023/12/04 01:48:51;;;;;;;8.23;7.68;;;;;;;;;;6140454;29;20054;-91
2023/12/04 01:51:52;;;;;;;10.73;8.07;;;;;;;;;;6136145;28;20477;-92
2023/12/04 01:54:54;;;;;;;7.13;6.72;;;;;;;;;;6138547;29;20047;-92
2023/12/04 01:57:56;;;;;;;7.05;6.65;;;;;;;;;;6139026;28;20409;-91
2023/12/04 02:00:58;;;;;;;9.75;9.05;;;;;;;;;;6132715;28;20645;-91
2023/12/04 02:04:01;;;;;;;8.05;7.55;;;;;;;;;;6133271;28;20559;-91
2023/12/04 02:07:03;;;;;;;7.28;6.65;;;;;;;;;;6137105;29;20125;-91
2023/12/04 02:10:06;;;;;;;10.45;9.07;;;;;;;;;;6138361;28;20145;-91
2023/12/04 02:13:08;;;;;;;8.48;7.97;;;;;;;;;;6139451;28;20374;-91
2023/12/04 02:16:10;;;;;;;8.75;8.02;;;;;;;;;;6135945;28;20047;-91
2023/12/04 02:19:12;;;;;;;9.38;8.65;;;;;;;;;;6140433;28;20051;-91
2023/12/04 02:22:15;;;;;;;8.10;7.50;;;;;;;;;;6136125;28;20433;-91
2023/12/04 02:25:18;;;;;;;9.45;8.68;;;;;;;;;;6131830;28;20122;-91
2023/12/04 02:28:36;;;;;;;7.55;6.90;;;;;;;;;;6137985;28;20050;-91
2023/12/04 02:31:39;;;;;;;8.80;7.97;;;;;;;;;;6136175;28;20047;-91
2023/12/04 02:34:41;;;;;;;7.70;6.95;;;;;;;;;;6134148;28;20049;-91
2023/12/04 02:37:43;;;;;;;7.40;6.97;;;;;;;;;;6136156;28;20050;-91
2023/12/04 02:40:45;;;;;;;7.43;6.82;;;;;;;;;;6136702;29;20408;-91
2023/12/04 02:43:46;;;;;;;9.18;8.38;;;;;;;;;;6135050;28;20055;-91
2023/12/04 02:46:48;;;;;;;7.30;6.90;;;;;;;;;;6136233;29;20501;-91
2023/12/04 02:49:49;;;;;;;7.85;7.35;;;;;;;;;;6121891;29;20102;-91
2023/12/04 02:52:51;;;;;;;6.97;6.40;;;;;;;;;;6135239;28;20090;-90
2023/12/04 02:55:53;;;;;;;8.48;7.68;;;;;;;;;;6133750;29;20047;-90
2023/12/04 02:58:54;;;;;;;7.57;6.88;;;;;;;;;;6136007;28;20051;-90
2023/12/04 03:01:56;;;;;;;8.27;7.68;;;;;;;;;;6134005;29;20055;-91
2023/12/04 03:04:58;;;;;;;6.25;5.95;;;;;;;;;;6137944;28;20863;-90
2023/12/04 03:07:59;;;;;;;8.88;8.27;;;;;;;;;;6136361;28;20738;-91
2023/12/04 03:11:03;;;;;;;12.07;8.00;;;;;;;;;;6144663;28;20055;-90
2023/12/04 03:14:05;;;;;;;6.22;5.90;;;;;;;;;;6141128;28;20043;-90
2023/12/04 03:17:06;;;;;;;7.68;6.97;;;;;;;;;;6139086;28;20049;-90
2023/12/04 03:20:08;;;;;;;7.45;6.95;;;;;;;;;;6158636;28;20077;-90
2023/12/04 03:23:10;;;;;;;6.53;6.18;;;;;;;;;;6140162;28;20051;-90
2023/12/04 03:26:12;;;;;;;7.53;7.03;;;;;;;;;;6139685;28;20058;-90
2023/12/04 03:29:13;;;;;;;10.77;7.78;;;;;;;;;;6143059;28;20058;-90
2023/12/04 03:32:15;;;;;;;8.32;7.85;;;;;;;;;;6140379;28;20544;-90
2023/12/04 03:35:16;;;;;;;9.05;8.40;;;;;;;;;;6135678;28;20497;-90
2023/12/04 03:38:18;;;;;;;7.22;6.93;;;;;;;;;;6133344;29;20044;-90
2023/12/04 03:41:22;;;;;;;7.75;7.25;;;;;;;;;;6139434;29;20051;-90
2023/12/04 03:44:23;;;;;;;12.65;9.10;;;;;;;;;;6138557;28;20043;-90
2023/12/04 03:47:26;;;;;;;9.63;7.45;;;;;;;;;;6135447;28;20062;-90
2023/12/04 03:50:28;;;;;;;7.13;6.82;;;;;;;;;;6132975;29;20412;-90
2023/12/04 03:53:29;;;;;;;6.85;6.45;;;;;;;;;;6141250;28;20051;-89
2023/12/04 03:56:31;;;;;;;7.78;7.28;;;;;;;;;;6140624;28;20046;-90
2023/12/04 03:59:32;;;;;;;7.57;7.15;;;;;;;;;;6137816;28;20047;-90
2023/12/04 04:02:34;;;;;;;8.57;8.00;;;;;;;;;;6141412;28;20047;-91
2023/12/04 04:05:35;;;;;;;7.95;7.07;;;;;;;;;;6134282;28;20074;-90
2023/12/04 04:08:37;;;;;;;8.13;7.30;;;;;;;;;;6137237;28;20044;-91
2023/12/04 04:11:39;;;;;;;7.50;7.05;;;;;;;;;;6138071;28;20051;-90
2023/12/04 04:14:41;;;;;;;6.68;6.18;;;;;;;;;;6141721;29;20059;-90
2023/12/04 04:17:42;;;;;;;8.30;7.70;;;;;;;;;;6139342;28;20046;-90
2023/12/04 04:20:44;;;;;;;8.40;7.63;;;;;;;;;;6139901;28;20043;-90
2023/12/04 04:23:46;;;;;;;7.03;6.45;;;;;;;;;;6136383;28;20090;-90
2023/12/04 04:26:47;;;;;;;9.65;8.35;;;;;;;;;;6141811;28;20105;-90
2023/12/04 04:29:49;;;;;;;7.43;7.03;;;;;;;;;;6134509;28;20062;-90
2023/12/04 04:32:50;;;;;;;6.70;6.40;;;;;;;;;;6141187;28;20599;-90
2023/12/04 04:35:52;;;;;;;7.13;6.57;;;;;;;;;;6138400;28;20525;-90
2023/12/04 04:38:54;;;;;;;6.80;6.50;;;;;;;;;;6139044;28;20039;-90
2023/12/04 04:41:55;;;;;;;7.05;6.68;;;;;;;;;;6135794;28;20062;-90
2023/12/04 04:44:57;;;;;;;7.35;6.95;;;;;;;;;;6138919;28;20085;-90
2023/12/04 04:47:58;;;;;;;5.07;4.88;;;;;;;;;;6140007;28;20477;-90
2023/12/04 04:51:00;;;;;;;6.00;5.70;;;;;;;;;;6140881;28;20129;-90
2023/12/04 04:54:02;;;;;;;6.93;6.53;;;;;;;;;;6140437;28;20051;-90
2023/12/04 04:57:03;;;;;;;6.93;6.53;;;;;;;;;;6140510;28;20067;-90
2023/12/04 05:00:06;;;;;;;6.97;6.60;;;;;;;;;;6139785;28;20055;-90
2023/12/04 05:03:07;;;;;;;7.68;6.55;;;;;;;;;;6137310;28;20043;-90
2023/12/04 05:06:09;;;;;;;8.18;7.60;;;;;;;;;;6135289;29;20524;-90
2023/12/04 05:09:11;;;;;;;6.60;6.32;;;;;;;;;;6141072;28;20520;-90
2023/12/04 05:12:13;;;;;;;6.70;6.20;;;;;;;;;;6137339;28;20039;-90
2023/12/04 05:15:14;;;;;;;8.00;7.57;;;;;;;;;;6139628;28;20051;-90
2023/12/04 05:18:16;;;;;;;8.02;7.57;;;;;;;;;;6139325;28;20042;-90
2023/12/04 05:21:17;;;;;;;8.93;8.32;;;;;;;;;;6139254;28;20043;-90
2023/12/04 05:24:19;;;;;;;7.13;6.57;;;;;;;;;;6136913;28;20187;-91
2023/12/04 05:27:21;;;;;;;6.13;5.82;;;;;;;;;;6139855;28;20036;-90
2023/12/04 05:30:22;;;;;;;6.43;6.13;;;;;;;;;;6140820;28;20047;-90
2023/12/04 05:33:24;;;;;;;5.80;5.60;;;;;;;;;;6138399;28;20485;-90
2023/12/04 05:36:26;;;;;;;6.68;6.38;;;;;;;;;;6138099;28;20043;-91
2023/12/04 05:39:28;;;;;;;5.95;5.60;;;;;;;;;;6138807;28;20101;-91
2023/12/04 05:42:30;;;;;;;6.93;6.45;;;;;;;;;;6139661;28;20043;-90
2023/12/04 05:45:31;;;;;;;7.50;7.10;;;;;;;;;;6138479;28;20120;-91
2023/12/04 05:48:33;;;;;;;6.47;6.15;;;;;;;;;;6137932;28;20073;-91
2023/12/04 05:51:35;;;;;;;5.60;5.25;;;;;;;;;;6137888;28;20047;-90
2023/12/04 05:54:37;;;;;;;10.32;9.35;;;;;;;;;;6139325;28;20043;-90
2023/12/04 05:57:39;;;;;;;6.97;6.68;;;;;;;;;;6135005;28;20518;-90
2023/12/04 06:00:40;;;;;;;6.50;6.20;;;;;;;;;;6134807;28;20045;-91
2023/12/04 06:03:42;;;;;;;8.88;8.13;;;;;;;;;;6139863;28;20043;-91
2023/12/04 06:06:44;;;;;;;7.72;6.68;;;;;;;;;;6139964;28;20838;-90
2023/12/04 06:09:45;;;;;;;10.10;6.53;;;;;;;;;;6137487;28;20055;-91
2023/12/04 06:12:47;;;;;;;7.15;6.50;;;;;;;;;;6139202;28;20695;-91
2023/12/04 06:15:49;;;;;;;7.30;6.90;;;;;;;;;;6132070;28;20041;-91
2023/12/04 06:18:52;;;;;;;7.43;6.78;;;;;;;;;;6133599;28;20046;-91
2023/12/04 06:21:54;;;;;;;6.00;5.70;;;;;;;;;;6131510;28;20436;-91
2023/12/04 06:24:56;;;;;;;8.68;8.07;;;;;;;;;;6138631;28;20047;-91
2023/12/04 06:27:59;;;;;;;6.68;6.38;;;;;;;;;;6136987;28;20581;-91
2023/12/04 06:31:02;;;;;;;9.15;8.05;;;;;;;;;;6137794;28;20135;-91
2023/12/04 06:34:04;;;;;;;8.25;7.43;;;;;;;;;;6134064;28;20108;-91
2023/12/04 06:37:12;;;;;;;7.03;6.72;;;;;;;;;;6137335;28;20051;-91
2023/12/04 06:40:14;;;;;;;8.65;7.88;;;;;;;;;;6134736;28;20545;-91
2023/12/04 06:43:18;;;;;;;8.35;7.82;;;;;;;;;;6131410;28;20047;-91
2023/12/04 06:46:20;;;;;;;6.05;5.78;;;;;;;;;;6141667;29;20043;-91
2023/12/04 06:49:22;;;;;;;6.55;5.97;;;;;;;;;;6143499;28;20146;-91
2023/12/04 06:52:24;;;;;;;6.28;6.03;;;;;;;;;;6141359;28;20046;-91
2023/12/04 06:55:26;;;;;;;7.47;7.10;;;;;;;;;;6143538;28;20058;-91
2023/12/04 06:58:27;;;;;;;8.23;7.80;;;;;;;;;;6142837;28;20039;-91
2023/12/04 07:01:29;;;;;;;5.95;5.65;;;;;;;;;;6139757;29;20129;-91
2023/12/04 07:04:31;;;;;;;5.45;5.25;;;;;;;;;;6143738;28;20190;-91
2023/12/04 07:07:33;;;;;;;7.88;7.25;;;;;;;;;;6143906;28;20058;-91
2023/12/04 07:10:34;;;;;;;6.70;6.40;;;;;;;;;;6142551;28;20047;-91
2023/12/04 07:13:36;;;;;;;6.28;5.93;;;;;;;;;;6141925;28;20050;-91
2023/12/04 07:16:46;;;;;;;7.47;6.97;;;;;;;;;;6138581;29;20430;-91
2023/12/04 07:19:49;;;;;;;7.10;6.63;;;;;;;;;;6136905;28;20528;-91
2023/12/04 07:22:50;;;;;;;6.75;6.43;;;;;;;;;;6141809;29;20044;-91
2023/12/04 07:25:52;;;;;;;7.13;6.75;;;;;;;;;;6140976;28;20083;-91
2023/12/04 07:28:54;;;;;;;6.93;6.28;;;;;;;;;;6140403;28;20043;-91
2023/12/04 07:31:55;;;;;;;6.63;6.32;;;;;;;;;;6137297;28;20067;-91
2023/12/04 07:34:58;;;;;;;5.82;5.63;;;;;;;;;;6141803;29;20043;-91
2023/12/04 07:38:00;;;;;;;6.30;6.00;;;;;;;;;;6137376;28;20495;-91
2023/12/04 07:41:02;;;;;;;10.90;10.05;;;;;;;;;;6116584;29;20078;-91
2023/12/04 07:44:04;;;;;;;7.15;6.65;;;;;;;;;;6141034;28;20043;-91
2023/12/04 07:47:05;;;;;;;6.30;5.85;;;;;;;;;;6135581;28;20048;-91
2023/12/04 07:50:07;;;;;;;8.18;7.50;;;;;;;;;;6143553;29;20527;-91
2023/12/04 07:53:11;;;;;;;11.68;6.85;;;;;;;;;;6141039;28;20046;-91
2023/12/04 07:56:13;;;;;;;7.43;6.93;;;;;;;;;;6141161;28;20261;-91
2023/12/04 07:59:15;;;;;;;9.50;8.15;;;;;;;;;;6144532;28;20043;-91
2023/12/04 08:02:17;;;;;;;8.27;6.10;;;;;;;;;;6142300;28;20047;-91
2023/12/04 08:05:18;;;;;;;5.75;5.53;;;;;;;;;;6140171;28;20048;-91
2023/12/04 08:08:21;;;;;;;7.38;6.95;;;;;;;;;;6123936;29;20094;-92
2023/12/04 08:11:23;;;;;;;6.38;6.05;;;;;;;;;;6142708;28;20428;-92
2023/12/04 08:14:24;;;;;;;6.78;6.40;;;;;;;;;;6144870;28;20070;-94
2023/12/04 08:17:26;;;;;;;6.20;5.93;;;;;;;;;;6140628;28;20540;-93
2023/12/04 08:20:28;;;;;;;7.05;6.65;;;;;;;;;;6151657;28;20391;-94
2023/12/04 08:23:40;;;;;;;7.45;7.05;;;;;;;;;;6139005;28;20050;-94
2023/12/04 08:26:42;;;;;;;7.25;6.78;;;;;;;;;;6150873;28;20051;-94
2023/12/04 08:29:44;;;;;;;7.60;7.10;;;;;;;;;;6121082;29;20047;-94
2023/12/04 08:32:47;;;;;;;7.47;6.88;;;;;;;;;;6143145;28;20052;-93
2023/12/04 08:35:48;;;;;;;6.28;5.88;;;;;;;;;;6122209;29;20550;-94
2023/12/04 08:38:50;;;;;;;7.05;6.63;;;;;;;;;;6135760;29;20059;-94
2023/12/04 08:41:52;;;;;;;5.95;5.72;;;;;;;;;;6137211;28;20645;-95
2023/12/04 08:45:05;;;;;;;8.15;7.40;;;;;;;;;;6135580;29;20058;-94
2023/12/04 08:48:07;;;;;;;9.85;5.93;;;;;;;;;;6139637;28;20513;-95
2023/12/04 08:51:14;;;;;;;6.85;6.55;;;;;;;;;;6135805;28;20055;-94
2023/12/04 08:54:18;;;;;;;7.53;7.00;;;;;;;;;;6143307;28;20160;-95
2023/12/04 08:57:20;;;;;;;8.52;7.88;;;;;;;;;;6138814;28;20146;-95
2023/12/04 09:00:22;;;;;;;7.38;6.93;;;;;;;;;;6139353;28;20046;-95
2023/12/04 09:03:23;;;;;;;6.03;5.57;;;;;;;;;;6144191;28;20051;-95
2023/12/04 09:06:32;;;;;;;7.57;7.07;;;;;;;;;;6139622;28;20088;-94
2023/12/04 09:09:37;;;;;;;6.13;5.72;;;;;;;;;;6135207;28;20055;-94
2023/12/04 09:12:39;;;;;;;7.38;6.97;;;;;;;;;;6140046;28;20035;-94
2023/12/04 09:15:41;;;;;;;8.00;7.47;;;;;;;;;;6142726;28;20051;-94
2023/12/04 09:18:43;;;;;;;6.28;5.85;;;;;;;;;;6142336;28;20047;-94
2023/12/04 09:21:45;;;;;;;6.32;6.00;;;;;;;;;;6141281;28;20225;-94
2023/12/04 09:24:48;;;;;;;7.03;6.25;;;;;;;;;;6142077;28;20047;-94
2023/12/04 09:27:50;;;;;;;6.63;6.13;;;;;;;;;;6136985;28;20866;-94
2023/12/04 09:30:51;;;;;;;6.90;6.53;;;;;;;;;;6140125;28;20078;-94
2023/12/04 09:33:53;;;;;;;5.38;5.18;;;;;;;;;;6139132;28;20051;-94
2023/12/04 09:36:54;;;;;;;9.57;8.95;;;;;;;;;;6135959;28;20051;-94
2023/12/04 09:40:09;;;;;;;7.00;6.68;;;;;;;;;;6153205;28;20054;-94
2023/12/04 09:43:12;;;;;;;6.93;6.53;;;;;;;;;;6141321;28;20070;-94
2023/12/04 09:46:14;;;;;;;8.00;7.43;;;;;;;;;;6140419;28;20058;-94
2023/12/04 09:49:18;;;;;;;7.18;6.78;;;;;;;;;;6140968;28;20139;-94
2023/12/04 09:52:20;;;;;;;6.97;6.38;;;;;;;;;;6136937;28;20510;-93
2023/12/04 09:55:22;;;;;;;7.55;7.15;;;;;;;;;;6138831;28;20043;-93
2023/12/04 09:58:25;;;;;;;9.25;8.52;;;;;;;;;;6140791;28;20487;-93
2023/12/04 10:01:28;;;;;;;5.55;5.35;;;;;;;;;;6139939;29;20044;-92
2023/12/04 10:04:31;;;;;;;6.30;5.95;;;;;;;;;;6124931;29;20062;-93
2023/12/04 10:07:33;;;;;;;6.40;6.00;;;;;;;;;;6136712;28;20174;-93
2023/12/04 10:10:36;;;;;;;7.60;7.10;;;;;;;;;;6137341;28;20080;-93
2023/12/04 10:13:40;;;;;;;8.00;6.95;;;;;;;;;;6139578;28;20401;-93
2023/12/04 10:17:13;;;;;;;7.15;6.75;;;;;;;;;;6138049;29;20054;-93
2023/12/04 10:20:21;;;;;;;6.50;6.20;;;;;;;;;;6135290;29;20170;-93
2023/12/04 10:23:36;;;;;;;7.88;7.07;;;;;;;;;;6136418;28;20077;-93
2023/12/04 10:26:40;;;;;;;8.88;8.07;;;;;;;;;;6137562;28;20801;-93
2023/12/04 10:29:43;;;;;;;6.82;6.45;;;;;;;;;;6131828;28;20051;-93
2023/12/04 10:32:45;;;;;;;7.72;7.32;;;;;;;;;;6130372;29;20190;-93
2023/12/04 10:35:47;;;;;;;6.60;6.10;;;;;;;;;;6131876;29;20039;-93
2023/12/04 10:38:57;;;;;;;7.05;6.35;;;;;;;;;;6136259;28;20568;-94
2023/12/04 10:42:03;;;;;;;8.15;5.60;;;;;;;;;;6136382;28;20409;-93
2023/12/04 10:45:06;;;;;;;6.25;5.95;;;;;;;;;;6136769;28;20059;-94
2023/12/04 10:48:08;;;;;;;6.72;6.40;;;;;;;;;;6139456;28;20027;-94
2023/12/04 10:51:12;;;;;;;8.35;7.32;;;;;;;;;;6147166;28;20035;-94
2023/12/04 10:54:14;;;;;;;6.75;6.40;;;;;;;;;;6134949;28;20043;-95
2023/12/04 10:57:26;;;;;;;7.70;7.28;;;;;;;;;;6136345;29;20175;-95
2023/12/04 11:00:28;;;;;;;6.55;5.82;;;;;;;;;;6132755;28;20059;-95
2023/12/04 11:03:43;;;;;;;6.03;5.80;;;;;;;;;;6139751;28;20554;-95
2023/12/04 11:06:47;;;;;;;5.88;5.63;;;;;;;;;;6145451;28;20051;-94
2023/12/04 11:09:49;;;;;;;7.63;7.22;;;;;;;;;;6152017;28;20102;-94
2023/12/04 11:12:55;;;;;;;6.22;5.93;;;;;;;;;;6138873;28;20035;-94
2023/12/04 11:16:01;;;;;;;6.95;6.50;;;;;;;;;;6139249;29;20039;-95
2023/12/04 11:19:18;;;;;;;7.30;6.88;;;;;;;;;;6136434;28;20047;-95
2023/12/04 11:22:21;;;;;;;7.90;7.28;;;;;;;;;;6135065;29;20047;-96
2023/12/04 11:25:24;;;;;;;6.50;6.15;;;;;;;;;;6122901;29;20556;-95
2023/12/04 11:28:27;;;;;;;6.50;6.20;;;;;;;;;;6154449;28;20050;-95
2023/12/04 11:31:29;;;;;;;7.32;6.68;;;;;;;;;;6153247;28;20146;-95
2023/12/04 11:34:31;;;;;;;5.97;5.65;;;;;;;;;;6143838;28;20050;-94
2023/12/04 11:37:33;;;;;;;7.85;7.10;;;;;;;;;;6139494;28;20050;-94
2023/12/04 11:40:36;;;;;;;5.70;5.38;;;;;;;;;;6141828;29;20129;-93
2023/12/04 11:43:42;;;;;;;5.32;5.10;;;;;;;;;;6145119;28;20074;-93
2023/12/04 11:47:02;;;;;;;6.82;6.25;;;;;;;;;;6143717;28;20047;-93
2023/12/04 11:50:07;;;;;;;5.82;5.63;;;;;;;;;;6142404;28;20539;-93
2023/12/04 11:53:11;;;;;;;9.05;8.30;;;;;;;;;;6142489;28;20182;-93
2023/12/04 11:56:13;;;;;;;7.20;6.68;;;;;;;;;;6139514;28;20079;-93
2023/12/04 11:59:15;;;;;;;6.40;6.05;;;;;;;;;;6142505;28;20039;-92
2023/12/04 12:02:17;;;;;;;7.72;7.30;;;;;;;;;;6141989;28;20053;-94
2023/12/04 12:05:26;;;;;;;6.82;6.53;;;;;;;;;;6140191;28;20058;-93
2023/12/04 12:08:28;;;;;;;7.00;6.68;;;;;;;;;;6133718;29;20047;-93
2023/12/04 12:11:36;;;;;;;6.25;5.95;;;;;;;;;;6135716;28;20058;-93
2023/12/04 12:14:38;;;;;;;6.60;6.15;;;;;;;;;;6147943;28;20043;-93
2023/12/04 12:17:40;;;;;;;6.85;6.55;;;;;;;;;;6143927;28;20039;-92
2023/12/04 12:20:42;;;;;;;6.72;6.32;;;;;;;;;;6142240;28;20055;-92
2023/12/04 12:23:44;;;;;;;6.20;5.82;;;;;;;;;;6140989;28;20054;-92
2023/12/04 12:26:46;;;;;;;5.93;5.55;;;;;;;;;;6140737;28;20058;-92
2023/12/04 12:29:48;;;;;;;6.60;6.28;;;;;;;;;;6140401;28;20150;-92
2023/12/04 12:32:50;;;;;;;5.82;5.43;;;;;;;;;;6142493;29;20039;-93
2023/12/04 12:35:52;;;;;;;7.53;5.50;;;;;;;;;;6142380;29;20516;-93
2023/12/04 12:39:05;;;;;;;9.25;6.18;;;;;;;;;;6143173;28;20039;-93
2023/12/04 12:42:08;;;;;;;5.72;5.43;;;;;;;;;;6140250;28;20039;-92
2023/12/04 12:45:11;;;;;;;9.07;5.80;;;;;;;;;;6139498;28;20528;-93
2023/12/04 12:48:14;;;;;;;6.05;5.75;;;;;;;;;;6143542;29;20057;-92
2023/12/04 12:51:17;;;;;;;5.22;5.03;;;;;;;;;;6155190;28;20520;-92
2023/12/04 12:54:23;;;;;;;6.57;6.07;;;;;;;;;;6142233;28;20047;-92
2023/12/04 12:57:25;;;;;;;6.05;5.75;;;;;;;;;;6134163;28;20229;-92
2023/12/04 13:00:27;;;;;;;7.55;7.18;;;;;;;;;;6139448;28;20043;-92
2023/12/04 13:03:31;;;;;;;6.45;6.10;;;;;;;;;;6140047;29;20501;-92
2023/12/04 13:06:33;;;;;;;8.38;7.47;;;;;;;;;;6141030;28;20379;-93
2023/12/04 13:09:36;;;;;;;5.97;5.47;;;;;;;;;;6140496;28;20039;-92
2023/12/04 13:12:38;;;;;;;7.70;7.30;;;;;;;;;;6138937;28;20051;-92
2023/12/04 13:15:43;;;;;;;6.18;5.88;;;;;;;;;;6139919;28;20070;-94
2023/12/04 13:18:44;;;;;;;7.32;7.03;;;;;;;;;;6824453;23;21271;-93
2023/12/04 13:21:46;;;;;;;5.80;5.60;;;;;;;;;;6160268;28;20080;-93
2023/12/04 13:24:48;;;;;;;5.68;5.43;;;;;;;;;;6164414;28;20055;-92
2023/12/04 13:27:50;;;;;;;6.43;6.13;;;;;;;;;;6156305;28;20046;-94
2023/12/04 13:30:53;;;;;;;5.72;5.47;;;;;;;;;;6163348;28;20058;-93
2023/12/04 13:33:55;;;;;;;5.68;5.47;;;;;;;;;;6164695;28;20039;-94
2023/12/04 13:36:57;;;;;;;5.47;5.10;;;;;;;;;;6167059;28;20043;-94
2023/12/04 13:40:04;;;;;;;5.70;5.45;;;;;;;;;;6160138;28;20050;-93
2023/12/04 13:46:32;;;;;;;6.20;5.90;;;;;;;;;;6164639;28;20058;-93
2023/12/04 13:49:34;;;;;;;6.35;6.07;;;;;;;;;;6162416;28;20401;-93
2023/12/04 13:52:36;;;;;;;6.43;6.10;;;;;;;;;;6161640;28;20068;-94
2023/12/04 13:56:10;;;;;;;7.53;7.10;;;;;;;;;;6161148;28;20086;-93
2023/12/04 13:59:07;;;;;;;6.45;6.05;;;;;;;;;;6164780;28;20046;-93
2023/12/04 14:02:11;;;;;;;7.20;6.82;;;;;;;;;;6162552;28;20153;-94
2023/12/04 14:05:15;;;;;;;6.13;5.75;;;;;;;;;;6160272;28;20425;-94
2023/12/04 14:08:18;;;;;;;5.15;4.95;;;;;;;;;;6159125;28;20058;-93
2023/12/04 14:11:39;;;;;;;8.75;5.43;;;;;;;;;;6160375;28;20504;-94
2023/12/04 14:14:40;;;;;;;6.38;6.07;;;;;;;;;;6164714;28;20043;-93
2023/12/04 14:17:42;;;;;;;5.35;5.15;;;;;;;;;;6164158;28;20484;-93
2023/12/04 14:20:44;;;;;;;6.20;5.90;;;;;;;;;;6159486;28;20065;-94
2023/12/04 14:23:46;;;;;;;6.20;5.90;;;;;;;;;;6162642;28;20070;-93
2023/12/04 14:26:49;;;;;;;5.55;5.35;;;;;;;;;;6161710;28;20501;-94
2023/12/04 14:29:50;;;;;;;5.47;5.28;;;;;;;;;;6163184;28;20402;-93
2023/12/04 14:32:52;;;;;;;6.20;5.90;;;;;;;;;;6157291;28;20050;-93
2023/12/04 14:35:54;;;;;;;5.60;5.20;;;;;;;;;;6170455;28;20046;-93
2023/12/04 14:38:58;;;;;;;5.38;5.18;;;;;;;;;;6157070;28;20413;-93
2023/12/04 14:42:02;;;;;;;5.85;5.65;;;;;;;;;;6158582;28;20501;-92
2023/12/04 14:45:04;;;;;;;5.80;5.38;;;;;;;;;;6175993;28;20058;-93
2023/12/04 14:48:12;;;;;;;7.22;6.80;;;;;;;;;;6159852;28;20735;-93
2023/12/04 14:51:14;;;;;;;5.13;4.93;;;;;;;;;;6176920;28;20489;-93
2023/12/04 14:54:36;;;;;;;5.85;5.55;;;;;;;;;;6174601;28;20076;-92
2023/12/04 14:58:10;;;;;;;5.82;5.53;;;;;;;;;;6150953;28;20046;-92
2023/12/04 15:02:10;;;;;;;5.28;5.07;;;;;;;;;;6161554;28;20150;-93
2023/12/04 15:14:48;;;;;;;6.22;5.70;;;;;;;;;;6170104;28;20484;-92
2023/12/04 15:18:26;;;;;;;5.88;5.38;;;;;;;;;;6168909;28;20081;-92
2023/12/04 15:21:18;;;;;;;5.80;5.45;;;;;;;;;;6167466;28;20050;-91
2023/12/04 15:24:21;;;;;;;6.47;6.18;;;;;;;;;;6165134;28;20051;-91
2023/12/04 15:27:22;;;;;;;5.47;5.22;;;;;;;;;;6161033;28;20042;-92
2023/12/04 15:30:24;;;;;;;5.25;4.97;;;;;;;;;;6184756;28;20049;-91
2023/12/04 15:33:27;;;;;;;6.97;5.85;;;;;;;;;;6167506;28;20397;-91
2023/12/04 15:36:31;;;;;;;5.97;5.57;;;;;;;;;;6169322;28;20472;-91
2023/12/04 15:39:33;;;;;;;6.13;5.82;;;;;;;;;;6181297;28;20051;-91
2023/12/04 15:42:36;;;;;;;5.95;5.65;;;;;;;;;;6159170;28;20050;-92
2023/12/04 15:45:38;;;;;;;6.82;6.45;;;;;;;;;;6159878;28;20066;-91
2023/12/04 15:48:40;;;;;;;5.68;5.47;;;;;;;;;;6164301;28;20061;-91
2023/12/04 15:51:48;;;;;;;5.53;5.25;;;;;;;;;;6162198;28;20042;-92
2023/12/04 15:54:49;;;;;;;5.70;5.43;;;;;;;;;;6164918;28;20051;-91
2023/12/04 15:57:54;;;;;;;5.90;5.60;;;;;;;;;;6164740;28;20034;-92
2023/12/04 16:00:57;;;;;;;5.95;5.53;;;;;;;;;;6164246;28;20058;-91
2023/12/04 16:03:58;;;;;;;4.65;4.55;;;;;;;;;;6165803;28;20049;-92
2023/12/04 16:07:00;;;;;;;7.07;6.68;;;;;;;;;;6164565;28;20456;-92
2023/12/04 16:10:02;;;;;;;6.45;6.15;;;;;;;;;;6167005;28;20134;-91
2023/12/04 16:13:04;;;;;;;4.80;4.65;;;;;;;;;;6165790;28;20041;-92
2023/12/04 16:16:06;;;;;;;5.05;4.85;;;;;;;;;;6163368;28;20088;-91
2023/12/04 16:19:10;;;;;;;7.32;7.03;;;;;;;;;;6164162;28;20394;-92
2023/12/04 16:22:12;;;;;;;5.38;5.18;;;;;;;;;;6166733;28;20050;-91
2023/12/04 16:25:17;;;;;;;5.18;4.97;;;;;;;;;;6161659;28;20052;-91
2023/12/04 16:28:21;;;;;;;5.45;5.25;;;;;;;;;;6175748;28;20046;-92
2023/12/04 16:31:23;;;;;;;6.43;5.88;;;;;;;;;;6159255;28;20043;-91
2023/12/04 16:34:24;;;;;;;5.68;5.47;;;;;;;;;;6161587;28;20042;-91
2023/12/04 16:37:28;;;;;;;5.68;5.35;;;;;;;;;;6171405;28;20050;-94
2023/12/04 16:40:30;;;;;;;5.20;4.90;;;;;;;;;;6162025;28;20430;-94
2023/12/04 16:43:32;;;;;;;5.15;4.95;;;;;;;;;;6160945;28;20057;-95
2023/12/04 16:46:33;;;;;;;5.72;5.30;;;;;;;;;;6160393;28;20047;-96
2023/12/04 16:49:35;;;;;;;6.40;6.03;;;;;;;;;;6161202;28;20046;-94
2023/12/04 16:52:38;;;;;;;6.50;5.97;;;;;;;;;;6162409;28;20089;-96
2023/12/04 16:55:40;;;;;;;5.63;5.32;;;;;;;;;;6178448;28;20050;-95
2023/12/04 16:58:42;;;;;;;5.40;5.20;;;;;;;;;;6164255;28;20065;-95
2023/12/04 17:01:44;;;;;;;7.18;6.82;;;;;;;;;;6158242;28;20541;-95
2023/12/04 17:04:45;;;;;;;6.10;5.90;;;;;;;;;;6162541;28;20051;-95
2023/12/04 17:07:47;;;;;;;5.55;5.35;;;;;;;;;;6159225;28;20051;-95
2023/12/04 17:10:51;;;;;;;7.07;6.78;;;;;;;;;;6160029;28;20054;-95
2023/12/04 17:13:53;;;;;;;6.90;6.55;;;;;;;;;;6161249;28;20050;-95
2023/12/04 17:16:55;;;;;;;13.00;6.65;;;;;;;;;;6161237;28;20047;-95
2023/12/04 17:19:58;;;;;;;6.72;6.38;;;;;;;;;;6161475;28;20045;-95
2023/12/04 17:23:00;;;;;;;5.85;5.55;;;;;;;;;;6161737;28;20040;-95
2023/12/04 17:26:02;;;;;;;6.18;5.78;;;;;;;;;;6176969;28;20043;-95
2023/12/04 17:29:04;;;;;;;6.00;5.80;;;;;;;;;;6155063;28;20543;-95
2023/12/04 17:32:06;;;;;;;6.55;6.15;;;;;;;;;;6140774;28;20551;-95
2023/12/04 17:35:08;;;;;;;6.55;6.22;;;;;;;;;;6147832;28;20160;-95
2023/12/04 17:38:10;;;;;;;6.30;6.00;;;;;;;;;;6155608;28;20046;-95
2023/12/04 17:41:12;;;;;;;7.30;7.00;;;;;;;;;;6160270;28;20070;-95
2023/12/04 17:44:14;;;;;;;7.40;6.95;;;;;;;;;;6160159;28;20416;-95
2023/12/04 17:47:16;;;;;;;6.28;6.05;;;;;;;;;;6157248;28;20129;-95
2023/12/04 17:50:18;;;;;;;6.38;5.80;;;;;;;;;;6160391;28;20047;-95
2023/12/04 17:53:20;;;;;;;6.95;6.57;;;;;;;;;;6154875;28;20489;-95
2023/12/04 17:56:22;;;;;;;8.00;7.60;;;;;;;;;;6155737;28;20438;-95
2023/12/04 17:59:24;;;;;;;6.13;5.88;;;;;;;;;;6157596;28;20042;-95
2023/12/04 18:02:26;;;;;;;5.93;5.63;;;;;;;;;;6161029;28;20354;-95
2023/12/04 18:05:27;;;;;;;6.85;6.55;;;;;;;;;;6159146;28;20058;-96
2023/12/04 18:08:29;;;;;;;8.57;7.93;;;;;;;;;;6156484;28;20145;-95
2023/12/04 18:11:31;;;;;;;5.75;5.45;;;;;;;;;;6159241;28;20055;-96
2023/12/04 18:14:33;;;;;;;7.35;6.38;;;;;;;;;;6162737;28;20290;-96
2023/12/04 18:17:41;;;;;;;6.35;6.05;;;;;;;;;;6156791;28;20154;-94
2023/12/04 18:20:46;;;;;;;7.65;7.30;;;;;;;;;;6154490;28;20047;-95
2023/12/04 18:23:49;;;;;;;6.32;6.03;;;;;;;;;;6156194;28;20493;-95
2023/12/04 18:26:51;;;;;;;5.88;5.57;;;;;;;;;;6157584;28;20126;-95
2023/12/04 18:29:53;;;;;;;6.40;6.10;;;;;;;;;;6162876;28;20050;-95
2023/12/04 18:32:55;;;;;;;7.68;6.82;;;;;;;;;;6159293;28;20051;-95